^^
Meteo Knjazevac Station Historical Data
Daily Summary for August 1, 2021 Units:  Metric    English   Both
Daily Weekly Monthly Yearly Custom
  High: Low: Average:
Temperature: 25 °C 18.9 °C 21.3 °C
Dew Point: 16.7 °C 14.2 °C 15.4 °C
Humidity: 77% 59% 69%
Wind Speed: 8km/h 0km/h 1.9km/h
Wind Gust: 12.9km/h - -
Wind- - SSW
Pressure: 1014.4 hPa 1012.4 hPa -
Precipitation: 0 mm    
Historical Graphs
 
 
Tabular Data for August 1, 2021
Time Temperature Dew Point Pressure Wind Wind Speed Wind Gust Humidity Rainfall Rate (Hourly) solar Conditions
00:00 25 °C 16.4 °C 1012.4 hPa Calm   4.8 km/h 59% 0 mm 0 W/m2
00:10 24.9 °C 16.3 °C 1012.4 hPa North 1.6 km/h 8 km/h 59% 0 mm 0 W/m2
00:20 24.6 °C 16.3 °C 1012.8 hPa North 1.6 km/h 4.8 km/h 60% 0 mm 0 W/m2
00:30 24.4 °C 16.1 °C 1012.8 hPa NW 3.2 km/h 8 km/h 60% 0 mm 0 W/m2
00:40 24.3 °C 15.8 °C 1012.8 hPa South 8 km/h 11.3 km/h 59% 0 mm 0 W/m2
00:50 24.3 °C 15.8 °C 1012.8 hPa SSW 1.6 km/h 12.9 km/h 59% 0 mm 0 W/m2
01:00 24.2 °C 15.7 °C 1012.8 hPa NNE 8 km/h 9.7 km/h 59% 0 mm 0 W/m2
01:10 24 °C 16.3 °C 1012.8 hPa North 3.2 km/h 9.7 km/h 62% 0 mm 0 W/m2
01:20 23.7 °C 16 °C 1012.8 hPa NNE 3.2 km/h 11.3 km/h 62% 0 mm 0 W/m2
01:30 23.5 °C 16.1 °C 1012.8 hPa North 1.6 km/h 8 km/h 63% 0 mm 0 W/m2
01:40 23.2 °C 16 °C 1012.8 hPa Calm   6.4 km/h 64% 0 mm 0 W/m2
01:50 23 °C 15.8 °C 1012.8 hPa NNE 1.6 km/h 8 km/h 64% 0 mm 0 W/m2
02:00 22.8 °C 15.9 °C 1012.8 hPa Calm   4.8 km/h 65% 0 mm 0 W/m2
02:10 22.4 °C 16 °C 1012.8 hPa NNW 1.6 km/h 3.2 km/h 67% 0 mm 0 W/m2
02:20 22.2 °C 15.3 °C 1012.8 hPa West 1.6 km/h 6.4 km/h 65% 0 mm 0 W/m2
02:30 22 °C 15.1 °C 1013.1 hPa NNE 3.2 km/h 8 km/h 65% 0 mm 0 W/m2
02:40 22 °C 14.9 °C 1013.1 hPa SSE 3.2 km/h 8 km/h 64% 0 mm 0 W/m2
02:50 21.9 °C 15 °C 1013.1 hPa Calm   6.4 km/h 65% 0 mm 0 W/m2
03:00 21.6 °C 15.2 °C 1013.1 hPa North 1.6 km/h 4.8 km/h 67% 0 mm 0 W/m2
03:10 21.2 °C 15.1 °C 1013.1 hPa NNW 1.6 km/h 4.8 km/h 68% 0 mm 0 W/m2
03:20 20.8 °C 14.9 °C 1013.1 hPa West 3.2 km/h 4.8 km/h 69% 0 mm 0 W/m2
03:30 20.2 °C 14.6 °C 1013.1 hPa Calm   4.8 km/h 70% 0 mm 0 W/m2
03:40 20 °C 14.8 °C 1013.4 hPa NNW 1.6 km/h 6.4 km/h 72% 0 mm 0 W/m2
03:50 19.9 °C 14.7 °C 1013.4 hPa North 1.6 km/h 4.8 km/h 72% 0 mm 0 W/m2
04:00 19.9 °C 14.7 °C 1013.4 hPa North 3.2 km/h 3.2 km/h 72% 0 mm 0 W/m2
04:10 19.8 °C 14.6 °C 1013.4 hPa NNE 3.2 km/h 6.4 km/h 72% 0 mm 0 W/m2
04:20 19.7 °C 14.5 °C 1013.4 hPa ENE 1.6 km/h 4.8 km/h 72% 0 mm 0 W/m2
04:30 19.6 °C 14.6 °C 1013.8 hPa West 3.2 km/h 4.8 km/h 73% 0 mm 0 W/m2
04:40 19.2 °C 14.2 °C 1013.8 hPa WNW 1.6 km/h 4.8 km/h 73% 0 mm 0 W/m2
04:50 19.1 °C 14.2 °C 1013.8 hPa WNW 1.6 km/h 4.8 km/h 73% 0 mm 0 W/m2
05:00 19 °C 14.3 °C 1013.8 hPa Calm   3.2 km/h 74% 0 mm 4 W/m2
05:10 18.9 °C 14.2 °C 1013.8 hPa NNE 4.8 km/h 6.4 km/h 74% 0 mm 8 W/m2
05:20 19.1 °C 14.2 °C 1014.1 hPa ENE 3.2 km/h 8 km/h 73% 0 mm 19 W/m2
05:30 19.3 °C 14.6 °C 1013.8 hPa South 1.6 km/h 8 km/h 74% 0 mm 28 W/m2
05:40 19.1 °C 14.6 °C 1014.1 hPa Calm   4.8 km/h 75% 0 mm 32 W/m2
05:50 19.1 °C 14.6 °C 1014.1 hPa West 1.6 km/h 6.4 km/h 75% 0 mm 32 W/m2
06:00 19.2 °C 14.7 °C 1014.1 hPa NNW 1.6 km/h 3.2 km/h 75% 0 mm 39 W/m2
06:10 19.3 °C 14.8 °C 1014.1 hPa Calm   3.2 km/h 75% 0 mm 43 W/m2
06:20 19.5 °C 14.9 °C 1014.1 hPa WNW 1.6 km/h 3.2 km/h 75% 0 mm 64 W/m2
06:30 19.7 °C 15.6 °C 1014.1 hPa West 1.6 km/h 3.2 km/h 77% 0 mm 79 W/m2
06:40 19.8 °C 15.7 °C 1014.1 hPa NNW 1.6 km/h 3.2 km/h 77% 0 mm 106 W/m2
06:50 20.1 °C 15.6 °C 1014.4 hPa NW 3.2 km/h 4.8 km/h 75% 0 mm 216 W/m2
07:00 20.4 °C 16.2 °C 1014.1 hPa West 3.2 km/h 4.8 km/h 77% 0 mm 111 W/m2
07:10 20.6 °C 16 °C 1014.4 hPa Calm   4.8 km/h 75% 0 mm 118 W/m2
07:20 20.9 °C 16.3 °C 1014.4 hPa Calm   3.2 km/h 75% 0 mm 138 W/m2
07:30 21.3 °C 15.4 °C 1014.4 hPa Calm   4.8 km/h 69% 0 mm 364 W/m2
07:40 21.7 °C 16.7 °C 1014.4 hPa Calm   3.2 km/h 73% 0 mm 381 W/m2
07:50 22.1 °C 16.2 °C 1014.4 hPa Calm   3.2 km/h 69% 0 mm 415 W/m2
08:00 22.5 °C 16.5 °C 1014.1 hPa SSE 3.2 km/h 8 km/h 69% 0 mm 460 W/m2
08:10 22.9 °C 16.7 °C 1014.4 hPa WSW 1.6 km/h 3.2 km/h 68% 0 mm 486 W/m2
Knjazevac, Serbia
Compliments of Weather Underground - 2 mb